Terminal Aerodrome Forecast
Issued by NWS

Home | Current Version | Previous Version | Graphics & Text | Print | Product List | Glossary Off
Versions: 1 2 3 4 5 6 7 8 9 10 11 12 13

000
FTUS45 KGGW 112320
TAFSDY
TAF
KSDY 112320Z 1200/1224 VRB06KT P6SM BKN035
     FM121500 24007KT P6SM SCT110 WS020/30030KT
     FM122100 25011KT P6SM FEW150=

USA.gov is the U.S. government's official web portal to all federal, state and local government web resources and services.